createdAt,value
2022-08-27T00:00:47.192Z,20.50
2022-08-27T00:03:14.917Z,20.50
2022-08-27T00:05:42.119Z,20.50
2022-08-27T00:08:12.403Z,20.50
2022-08-27T00:10:40.697Z,20.40
2022-08-27T00:13:07.631Z,20.40
2022-08-27T00:15:34.492Z,20.40
2022-08-27T00:18:01.322Z,20.40
2022-08-27T00:20:28.402Z,20.40
2022-08-27T00:22:55.601Z,20.40
2022-08-27T00:25:22.722Z,20.40
2022-08-27T00:27:49.571Z,20.40
2022-08-27T00:30:19.499Z,20.40
2022-08-27T00:32:47.462Z,20.40
2022-08-27T00:35:16.152Z,20.30
2022-08-27T00:37:44.420Z,20.30
2022-08-27T00:40:14.998Z,20.30
2022-08-27T00:42:42.595Z,20.30
2022-08-27T00:45:09.769Z,20.30
2022-08-27T00:47:42.816Z,20.20
2022-08-27T00:50:15.889Z,20.30
2022-08-27T00:52:52.459Z,20.30
2022-08-27T00:55:23.924Z,20.30
2022-08-27T00:58:24.007Z,20.30
2022-08-27T01:00:51.010Z,20.30
2022-08-27T01:03:18.053Z,20.30
2022-08-27T01:05:47.676Z,20.20
2022-08-27T01:08:19.544Z,20.20
2022-08-27T01:10:46.953Z,20.20
2022-08-27T01:13:18.582Z,20.20
2022-08-27T01:15:46.361Z,20.20
2022-08-27T01:18:14.895Z,20.20
2022-08-27T01:20:59.699Z,20.20
2022-08-27T01:23:58.750Z,20.20
2022-08-27T01:26:25.849Z,20.20
2022-08-27T01:28:53.244Z,20.30
2022-08-27T01:31:20.098Z,20.30
2022-08-27T01:34:04.527Z,20.30
2022-08-27T01:36:31.935Z,20.30
2022-08-27T01:38:58.892Z,20.30
2022-08-27T01:41:26.229Z,20.40
2022-08-27T01:43:53.623Z,20.40
2022-08-27T01:46:25.661Z,20.40
2022-08-27T01:48:53.051Z,20.40
2022-08-27T01:51:20.657Z,20.40
2022-08-27T01:53:47.610Z,20.40
2022-08-27T01:56:15.339Z,20.40
2022-08-27T01:58:43.664Z,20.40
2022-08-27T02:01:14.210Z,20.30
2022-08-27T02:03:41.527Z,20.30
2022-08-27T02:06:10.575Z,20.30
2022-08-27T02:08:37.864Z,20.30
2022-08-27T02:11:05.305Z,20.30
2022-08-27T02:13:32.043Z,20.20
2022-08-27T02:15:58.856Z,20.20
2022-08-27T02:18:26.103Z,20.20
2022-08-27T02:20:52.868Z,20.20
2022-08-27T02:23:19.692Z,20.20
2022-08-27T02:25:49.428Z,20.20
2022-08-27T02:28:16.336Z,20.20
2022-08-27T02:30:44.012Z,20.20
2022-08-27T02:33:10.793Z,20.20
2022-08-27T02:35:43.809Z,20.20
2022-08-27T02:38:13.076Z,20.20
2022-08-27T02:40:40.338Z,20.20
2022-08-27T02:43:07.586Z,20.10
2022-08-27T02:45:35.599Z,20.10
2022-08-27T02:48:03.373Z,20.10
2022-08-27T02:50:30.380Z,20.00
2022-08-27T02:52:57.809Z,20.00
2022-08-27T02:55:24.763Z,20.00
2022-08-27T02:57:51.557Z,20.00
2022-08-27T03:00:21.545Z,20.00
2022-08-27T03:02:48.521Z,20.00
2022-08-27T03:05:16.181Z,19.90
2022-08-27T03:07:43.435Z,19.90
2022-08-27T03:10:13.467Z,19.90
2022-08-27T03:12:41.390Z,19.90
2022-08-27T03:15:11.382Z,19.80
2022-08-27T03:17:56.810Z,19.80
2022-08-27T03:20:24.259Z,19.80
2022-08-27T03:22:51.262Z,19.80
2022-08-27T03:25:18.228Z,19.70
2022-08-27T03:27:45.294Z,19.80
2022-08-27T03:30:16.091Z,19.70
2022-08-27T03:32:43.778Z,19.70
2022-08-27T03:35:11.637Z,19.70
2022-08-27T03:37:38.637Z,19.70
2022-08-27T03:40:07.102Z,19.70
2022-08-27T03:42:34.788Z,19.70
2022-08-27T03:45:01.738Z,19.70
2022-08-27T03:47:28.547Z,19.60
2022-08-27T03:49:55.302Z,19.60
2022-08-27T03:52:22.367Z,19.60
2022-08-27T03:54:49.113Z,19.60
2022-08-27T03:57:15.884Z,19.60
2022-08-27T03:59:42.661Z,19.60
2022-08-27T04:02:09.532Z,19.60
2022-08-27T04:04:36.375Z,19.60
2022-08-27T04:07:03.804Z,19.60
2022-08-27T04:09:30.531Z,19.60
2022-08-27T04:11:57.325Z,19.60
2022-08-27T04:14:26.755Z,19.60
2022-08-27T04:16:57.724Z,19.60
2022-08-27T04:19:27.948Z,19.60
2022-08-27T04:22:00.153Z,19.60
2022-08-27T04:24:27.186Z,19.60
2022-08-27T04:26:53.965Z,19.60
2022-08-27T04:29:20.767Z,19.60
2022-08-27T04:31:47.982Z,19.60
2022-08-27T04:34:16.508Z,19.60
2022-08-27T04:36:43.307Z,19.60
2022-08-27T04:39:10.047Z,19.60
2022-08-27T04:41:36.951Z,19.50
2022-08-27T04:44:07.360Z,19.50
2022-08-27T04:46:40.718Z,19.50
2022-08-27T04:49:15.289Z,19.60
2022-08-27T04:51:43.071Z,19.60
2022-08-27T04:54:10.862Z,19.60
2022-08-27T04:56:38.658Z,19.60
2022-08-27T04:59:08.196Z,19.60
2022-08-27T05:01:35.517Z,19.60
2022-08-27T05:04:02.976Z,19.60
2022-08-27T05:06:29.801Z,19.50
2022-08-27T05:08:57.330Z,19.50
2022-08-27T05:11:27.088Z,19.50
2022-08-27T05:13:53.841Z,19.50
2022-08-27T05:16:22.920Z,19.50
2022-08-27T05:18:51.846Z,19.50
2022-08-27T05:21:24.799Z,19.50
2022-08-27T05:23:52.800Z,19.50
2022-08-27T05:26:20.030Z,19.50
2022-08-27T05:28:47.061Z,19.50
2022-08-27T05:31:15.316Z,19.50
2022-08-27T05:33:42.977Z,19.50
2022-08-27T05:36:20.719Z,19.50
2022-08-27T05:38:49.285Z,19.60
2022-08-27T05:41:19.308Z,19.60
2022-08-27T05:43:50.112Z,19.70
2022-08-27T05:46:20.334Z,19.60
2022-08-27T05:48:49.136Z,19.70
2022-08-27T05:51:25.692Z,19.70
2022-08-27T05:54:08.798Z,19.70
2022-08-27T05:56:38.909Z,19.80
2022-08-27T05:59:35.391Z,19.80
2022-08-27T06:02:04.086Z,19.80
2022-08-27T06:04:30.903Z,19.80
2022-08-27T06:06:57.692Z,19.90
2022-08-27T06:09:28.795Z,19.90
2022-08-27T06:11:57.946Z,19.90
2022-08-27T06:14:24.791Z,20.00
2022-08-27T06:16:51.968Z,19.90
2022-08-27T06:19:18.877Z,20.00
2022-08-27T06:21:45.759Z,20.00
2022-08-27T06:24:13.473Z,19.90
2022-08-27T06:26:44.727Z,19.90
2022-08-27T06:29:13.893Z,20.00
2022-08-27T06:31:41.574Z,20.00
2022-08-27T06:34:09.909Z,20.00
2022-08-27T06:36:41.855Z,20.00
2022-08-27T06:39:13.236Z,20.00
2022-08-27T06:41:41.726Z,20.00
2022-08-27T06:44:12.047Z,20.00
2022-08-27T06:46:39.853Z,20.00
2022-08-27T06:49:06.975Z,19.90
2022-08-27T06:51:37.662Z,19.90
2022-08-27T06:54:07.216Z,19.90
2022-08-27T06:56:34.458Z,19.90
2022-08-27T06:59:03.752Z,20.00
2022-08-27T07:01:36.605Z,20.00
2022-08-27T07:04:07.082Z,20.00
2022-08-27T07:06:35.978Z,20.00
2022-08-27T07:09:03.873Z,20.00
2022-08-27T07:11:34.143Z,20.10
2022-08-27T07:14:01.416Z,20.10
2022-08-27T07:16:29.291Z,20.20
2022-08-27T07:19:01.909Z,20.10
2022-08-27T07:21:31.321Z,20.20
2022-08-27T07:23:59.732Z,20.20
2022-08-27T07:26:26.826Z,20.20
2022-08-27T07:28:53.590Z,20.20
2022-08-27T07:31:22.777Z,20.20
2022-08-27T07:33:52.652Z,20.20
2022-08-27T07:36:21.758Z,20.20
2022-08-27T07:38:56.953Z,20.30
2022-08-27T07:41:32.294Z,20.30
2022-08-27T07:44:26.158Z,20.30
2022-08-27T07:46:55.934Z,20.30
2022-08-27T07:49:23.771Z,20.30
2022-08-27T07:51:51.129Z,20.30
2022-08-27T07:54:21.077Z,20.30
2022-08-27T07:56:55.161Z,20.30
2022-08-27T07:59:26.266Z,20.30
2022-08-27T08:01:54.371Z,20.30
2022-08-27T08:04:22.643Z,20.30
2022-08-27T08:06:50.985Z,20.30
2022-08-27T08:09:17.846Z,20.40
2022-08-27T08:11:44.857Z,20.40
2022-08-27T08:14:11.624Z,20.40
2022-08-27T08:16:38.464Z,20.40
2022-08-27T08:19:05.310Z,20.40
2022-08-27T08:21:32.151Z,20.40
2022-08-27T08:24:00.026Z,20.50
2022-08-27T08:26:26.840Z,20.50
2022-08-27T08:28:53.594Z,20.50
2022-08-27T08:31:21.091Z,20.60
2022-08-27T08:33:48.574Z,20.60
2022-08-27T08:36:17.274Z,20.70
2022-08-27T08:38:47.289Z,20.70
2022-08-27T08:41:44.456Z,20.70
2022-08-27T08:44:36.563Z,20.70
2022-08-27T08:47:10.405Z,20.70
2022-08-27T08:50:15.785Z,20.70
2022-08-27T08:52:58.459Z,20.70
2022-08-27T08:55:45.678Z,20.70
2022-08-27T08:58:45.421Z,20.70
2022-08-27T09:01:17.449Z,20.80
2022-08-27T09:03:59.228Z,20.80
2022-08-27T09:06:33.174Z,20.80
2022-08-27T09:09:12.233Z,20.70
2022-08-27T09:11:56.983Z,20.70
2022-08-27T09:15:05.034Z,20.80
2022-08-27T09:17:32.516Z,20.80
2022-08-27T09:19:59.376Z,20.80
2022-08-27T09:22:47.071Z,20.80
2022-08-27T09:25:28.309Z,20.70
2022-08-27T09:27:57.535Z,20.70
2022-08-27T09:30:30.763Z,20.70
2022-08-27T09:33:01.346Z,20.70
2022-08-27T09:35:34.400Z,20.60
2022-08-27T09:38:02.382Z,20.60
2022-08-27T09:41:10.732Z,20.60
2022-08-27T10:12:43.238Z,20.50
2022-08-27T10:36:18.321Z,20.50
2022-08-27T10:39:10.692Z,20.40
2022-08-27T11:20:37.117Z,20.70
2022-08-27T11:32:21.288Z,20.80
2022-08-27T11:42:05.791Z,21.00
2022-08-27T11:49:40.771Z,21.00
2022-08-27T11:53:26.601Z,21.10
2022-08-27T12:00:52.478Z,21.10
2022-08-27T12:09:06.308Z,21.10
2022-08-27T12:11:48.912Z,21.10
2022-08-27T12:14:35.377Z,21.20
2022-08-27T12:17:24.125Z,21.30
2022-08-27T12:20:12.465Z,21.20
2022-08-27T12:23:26.179Z,21.30
2022-08-27T12:26:18.589Z,21.30
2022-08-27T12:28:52.134Z,21.30
2022-08-27T12:31:24.328Z,21.40
2022-08-27T12:33:57.797Z,21.50
2022-08-27T12:36:28.516Z,21.60
2022-08-27T12:39:01.005Z,21.60
2022-08-27T12:41:46.000Z,21.70
2022-08-27T12:45:02.785Z,21.70
2022-08-27T12:51:45.928Z,21.70
2022-08-27T13:03:12.138Z,21.70
2022-08-27T13:10:40.972Z,21.90
2022-08-27T13:17:17.849Z,22.00
2022-08-27T13:32:02.849Z,22.10
2022-08-27T13:34:42.065Z,22.10
2022-08-27T13:41:31.793Z,22.10
2022-08-27T13:47:31.655Z,22.00
2022-08-27T13:57:52.616Z,21.90
2022-08-27T14:04:58.874Z,21.90
2022-08-27T14:08:18.068Z,21.90
2022-08-27T14:14:17.942Z,21.90
2022-08-27T14:16:47.452Z,21.90
2022-08-27T14:23:09.098Z,21.90
2022-08-27T14:26:42.562Z,21.90
2022-08-27T14:32:03.687Z,21.80
2022-08-27T14:51:12.942Z,21.80
2022-08-27T14:53:57.918Z,21.80
2022-08-27T14:56:34.817Z,21.80
2022-08-27T15:01:57.923Z,21.80
2022-08-27T15:04:37.786Z,21.80
2022-08-27T15:07:05.559Z,21.80
2022-08-27T15:18:23.828Z,21.70
2022-08-27T15:25:48.405Z,21.70
2022-08-27T15:32:28.838Z,21.80
2022-08-27T15:35:30.114Z,21.70
2022-08-27T15:38:35.666Z,21.70
2022-08-27T15:45:32.709Z,21.70
2022-08-27T15:49:18.556Z,21.80
2022-08-27T16:00:01.650Z,21.80
2022-08-27T16:07:10.284Z,21.80
2022-08-27T16:24:55.653Z,21.80
2022-08-27T16:32:36.625Z,21.90
2022-08-27T16:42:24.718Z,21.90
2022-08-27T16:58:29.595Z,21.80
2022-08-27T17:01:45.560Z,21.90
2022-08-27T17:15:30.207Z,21.70
2022-08-27T17:21:55.086Z,21.70
2022-08-27T17:30:16.089Z,21.60
2022-08-27T17:37:20.467Z,21.30
2022-08-27T17:40:05.925Z,21.20
2022-08-27T17:42:32.909Z,21.20
2022-08-27T17:45:00.208Z,21.20
2022-08-27T17:47:27.774Z,21.20
2022-08-27T17:49:54.618Z,21.20
2022-08-27T17:52:22.474Z,21.20
2022-08-27T17:54:51.913Z,21.20
2022-08-27T17:57:22.690Z,21.10
2022-08-27T17:59:50.584Z,21.10
2022-08-27T18:02:37.670Z,21.10
2022-08-27T18:05:07.084Z,21.10
2022-08-27T18:07:39.148Z,21.10
2022-08-27T18:10:07.650Z,21.10
2022-08-27T18:12:34.551Z,21.10
2022-08-27T18:15:06.899Z,21.00
2022-08-27T18:17:34.589Z,21.00
2022-08-27T18:20:03.805Z,21.00
2022-08-27T18:22:35.116Z,20.90
2022-08-27T18:25:06.191Z,20.90
2022-08-27T18:27:35.534Z,20.80
2022-08-27T18:30:04.075Z,20.80
2022-08-27T18:32:31.285Z,20.80
2022-08-27T18:35:01.293Z,20.80
2022-08-27T18:37:28.049Z,20.70
2022-08-27T18:39:54.931Z,20.70
2022-08-27T18:42:21.746Z,20.70
2022-08-27T18:44:48.487Z,20.70
2022-08-27T18:47:15.284Z,20.70
2022-08-27T18:49:42.159Z,20.70
2022-08-27T18:52:12.092Z,20.70
2022-08-27T18:54:41.354Z,20.70
2022-08-27T18:57:08.303Z,20.70
2022-08-27T18:59:35.670Z,20.70
2022-08-27T19:02:04.436Z,20.70
2022-08-27T19:04:32.611Z,20.70
2022-08-27T19:06:59.479Z,20.70
2022-08-27T19:09:26.353Z,20.70
2022-08-27T19:11:53.134Z,20.70
2022-08-27T19:14:20.093Z,20.70
2022-08-27T19:16:50.638Z,20.70
2022-08-27T19:19:18.264Z,20.70
2022-08-27T19:21:50.689Z,20.60
2022-08-27T19:24:19.340Z,20.60
2022-08-27T19:26:46.875Z,20.60
2022-08-27T19:29:13.802Z,20.60
2022-08-27T19:31:40.734Z,20.60
2022-08-27T19:34:08.570Z,20.50
2022-08-27T19:36:39.578Z,20.50
2022-08-27T19:39:08.317Z,20.50
2022-08-27T19:41:35.215Z,20.50
2022-08-27T19:44:02.313Z,20.40
2022-08-27T19:46:29.239Z,20.40
2022-08-27T19:48:57.872Z,20.40
2022-08-27T19:51:25.049Z,20.30
2022-08-27T19:53:52.001Z,20.20
2022-08-27T19:56:18.936Z,20.20
2022-08-27T19:58:45.834Z,20.10
2022-08-27T20:01:12.948Z,20.10
2022-08-27T20:03:39.757Z,20.10
2022-08-27T20:06:06.573Z,20.00
2022-08-27T20:08:33.630Z,20.00
2022-08-27T20:11:01.384Z,19.90
2022-08-27T20:13:32.871Z,19.90
2022-08-27T20:16:00.499Z,19.90
2022-08-27T20:18:27.460Z,19.90
2022-08-27T20:20:54.489Z,19.80
2022-08-27T20:23:21.341Z,19.80
2022-08-27T20:25:48.214Z,19.80
2022-08-27T20:28:37.666Z,19.80
2022-08-27T20:31:02.230Z,19.70
2022-08-27T20:33:29.108Z,19.70
2022-08-27T20:35:56.669Z,19.70
2022-08-27T20:38:23.517Z,19.60
2022-08-27T20:40:50.740Z,19.60
2022-08-27T20:43:18.755Z,19.60
2022-08-27T20:45:45.841Z,19.60
2022-08-27T20:48:13.284Z,19.50
2022-08-27T20:50:40.271Z,19.50
2022-08-27T20:53:07.102Z,19.50
2022-08-27T20:55:33.895Z,19.40
2022-08-27T20:58:19.243Z,19.40
2022-08-27T21:00:46.243Z,19.40
2022-08-27T21:03:14.701Z,19.40
2022-08-27T21:05:43.596Z,19.30
2022-08-27T21:08:10.530Z,19.30
2022-08-27T21:10:47.576Z,19.30
2022-08-27T21:13:15.172Z,19.20
2022-08-27T21:15:41.997Z,19.20
2022-08-27T21:18:08.955Z,19.20
2022-08-27T21:20:35.792Z,19.20
2022-08-27T21:23:02.810Z,19.20
2022-08-27T21:25:29.796Z,19.20
2022-08-27T21:27:57.781Z,19.20
2022-08-27T21:30:26.191Z,19.20
2022-08-27T21:32:55.856Z,19.20
2022-08-27T21:35:27.299Z,19.20
2022-08-27T21:37:56.665Z,19.20
2022-08-27T21:40:25.180Z,19.20
2022-08-27T21:42:53.567Z,19.20
2022-08-27T21:45:20.709Z,19.20
2022-08-27T21:47:47.767Z,19.10
2022-08-27T21:50:15.168Z,19.10
2022-08-27T21:52:41.952Z,19.10
2022-08-27T21:55:09.380Z,19.00
2022-08-27T21:57:36.394Z,19.00
2022-08-27T22:00:15.950Z,19.00
2022-08-27T22:02:42.687Z,19.00
2022-08-27T22:05:09.777Z,19.00
2022-08-27T22:07:36.613Z,18.90
2022-08-27T22:10:04.886Z,18.90
2022-08-27T22:12:31.686Z,18.90
2022-08-27T22:14:58.463Z,18.90
2022-08-27T22:17:25.268Z,18.90
2022-08-27T22:19:52.058Z,18.80
2022-08-27T22:22:18.995Z,18.80
2022-08-27T22:24:46.081Z,18.80
2022-08-27T22:27:12.847Z,18.80
2022-08-27T22:29:39.711Z,18.70
2022-08-27T22:32:09.370Z,18.70
2022-08-27T22:34:36.490Z,18.70
2022-08-27T22:37:04.506Z,18.70
2022-08-27T22:39:31.426Z,18.70
2022-08-27T22:41:58.609Z,18.60
2022-08-27T22:44:29.221Z,18.60
2022-08-27T22:46:56.640Z,18.60
2022-08-27T22:49:23.438Z,18.60
2022-08-27T22:51:50.300Z,18.50
2022-08-27T22:54:18.292Z,18.50
2022-08-27T22:56:45.088Z,18.50
2022-08-27T22:59:12.017Z,18.50
2022-08-27T23:01:38.991Z,18.50
2022-08-27T23:04:06.566Z,18.50
2022-08-27T23:06:34.558Z,18.50
2022-08-27T23:09:01.835Z,18.40
2022-08-27T23:11:31.588Z,18.40
2022-08-27T23:13:59.315Z,18.40
2022-08-27T23:16:27.108Z,18.30
2022-08-27T23:18:54.608Z,18.30
2022-08-27T23:21:21.406Z,18.30
2022-08-27T23:23:48.192Z,18.30
2022-08-27T23:26:33.652Z,18.30
2022-08-27T23:29:00.529Z,18.30
2022-08-27T23:31:27.348Z,18.20
2022-08-27T23:33:55.915Z,18.20
2022-08-27T23:36:23.252Z,18.20
2022-08-27T23:38:50.086Z,18.20
2022-08-27T23:41:16.940Z,18.20
2022-08-27T23:43:45.630Z,18.20
2022-08-27T23:46:13.200Z,18.20
2022-08-27T23:48:40.600Z,18.20
2022-08-27T23:51:08.537Z,18.30
2022-08-27T23:53:37.180Z,18.30
2022-08-27T23:56:04.996Z,18.30
2022-08-27T23:58:32.694Z,18.30
